Terminal Aerodrome Forecast
Issued by NWS

Home | Current Version | Previous Version | Text Only | Print | Product List | Glossary Off
Versions: 1 2 3 4 5 6 7 8 9 10 11 12 13 14 15 16 17 18 19

000
FTUS43 KGRB 290520
TAFAUW
TAF
KAUW 290520Z 2906/3006 15006KT P6SM BKN150
     FM291000 17008KT P6SM -SHRA BKN035 OVC060
      TEMPO 2911/2915 4SM SHRA BR BKN020
     FM291600 23012G20KT P6SM VCSH BKN035 BKN050
      TEMPO 2916/2920 BKN025
     FM292100 26008KT P6SM -SHRA BKN035 OVC050
      TEMPO 2921/3001 3SM TSRA BKN020CB
     FM300100 33006KT 4SM RA BR BKN015 OVC030
      TEMPO 3004/3006 OVC009=

USA.gov is the U.S. government's official web portal to all federal, state and local government web resources and services.